Time;durP1;ratioP1;P1;durP2;ratioP2;P2;SDS_P1;SDS_P2;PMS_P1;PMS_P2;Temp;Humidity;BMP_temperature;BMP_pressure;BME280_temperature;BME280_humidity;BME280_pressure;Samples;Min_cycle;Max_cycle;Signal;HPM_P1;HPM_P2
2023/11/29 00:01:23;;;;;;;5.10;1.70;;;;;;;19.49;41.41;98384.59;105852;1257;60529;-55
2023/11/29 00:03:51;;;;;;;5.10;1.00;;;;;;;19.57;41.37;98380.45;106603;1257;65026;-56
2023/11/29 00:06:19;;;;;;;4.80;2.20;;;;;;;19.61;41.35;98379.05;105482;1252;61334;-57
2023/11/29 00:08:46;;;;;;;2.50;0.50;;;;;;;19.65;41.35;98378.60;105505;1252;63792;-56
2023/11/29 00:11:14;;;;;;;3.50;1.00;;;;;;;19.74;41.22;98373.48;105407;1257;60661;-56
2023/11/29 00:13:42;;;;;;;4.80;2.10;;;;;;;19.85;41.25;98369.34;105694;1256;60383;-56
2023/11/29 00:16:10;;;;;;;4.00;0.80;;;;;;;19.87;41.26;98371.36;105447;1257;63673;-55
2023/11/29 00:18:37;;;;;;;3.20;1.00;;;;;;;19.80;41.40;98368.38;105466;1251;61387;-56
2023/11/29 00:21:06;;;;;;;3.30;0.90;;;;;;;19.79;41.39;98362.95;107078;1253;62498;-56
2023/11/29 00:23:34;;;;;;;2.70;1.20;;;;;;;19.79;41.47;98362.21;107042;1251;60876;-57
2023/11/29 00:26:02;;;;;;;5.70;1.70;;;;;;;19.81;41.53;98361.97;105549;1252;60443;-56
2023/11/29 00:28:30;;;;;;;2.10;0.70;;;;;;;19.79;41.45;98359.71;105748;1251;64901;-57
2023/11/29 00:30:59;;;;;;;3.20;0.50;;;;;;;19.83;41.28;98353.56;106734;1251;61398;-57
2023/11/29 00:33:27;;;;;;;1.50;0.60;;;;;;;19.85;41.27;98348.43;105475;1257;62494;-58
2023/11/29 00:35:55;;;;;;;4.70;1.50;;;;;;;19.88;41.21;98346.66;105975;1257;60812;-57
2023/11/29 00:38:23;;;;;;;1.80;0.40;;;;;;;19.87;41.35;98343.27;109404;1251;58355;-58
2023/11/29 00:40:51;;;;;;;3.20;0.50;;;;;;;19.92;41.30;98342.48;109304;1250;63631;-57
2023/11/29 00:43:18;;;;;;;2.70;1.00;;;;;;;19.91;41.29;98342.55;109379;1254;60836;-57
2023/11/29 00:45:46;;;;;;;1.70;0.30;;;;;;;19.90;41.27;98341.30;109352;1251;62468;-58
2023/11/29 00:48:14;;;;;;;0.80;0.30;;;;;;;19.87;41.25;98336.08;109430;1251;58420;-57
2023/11/29 00:50:42;;;;;;;1.20;0.30;;;;;;;19.82;41.18;98335.43;109364;1250;58223;-58
2023/11/29 00:53:10;;;;;;;1.30;0.30;;;;;;;19.78;41.11;98333.42;109402;1251;63725;-58
2023/11/29 00:55:37;;;;;;;0.70;0.20;;;;;;;19.79;41.04;98331.48;108943;1251;61451;-58
2023/11/29 00:58:05;;;;;;;3.40;0.80;;;;;;;19.81;40.90;98323.63;105421;1251;63735;-57
2023/11/29 01:00:32;;;;;;;0.80;0.20;;;;;;;19.80;40.78;98319.38;106965;1250;60379;-58
2023/11/29 01:03:00;;;;;;;1.10;0.20;;;;;;;19.82;40.71;98314.90;106502;1255;60533;-60
2023/11/29 01:05:28;;;;;;;2.80;0.60;;;;;;;19.87;40.73;98310.51;107563;1251;63648;-58
2023/11/29 01:07:56;;;;;;;1.10;0.30;;;;;;;19.90;40.83;98306.09;106160;1251;61344;-57
2023/11/29 01:10:23;;;;;;;2.60;0.60;;;;;;;19.86;40.97;98300.14;105379;1255;63750;-57
2023/11/29 01:12:52;;;;;;;1.50;0.20;;;;;;;19.81;40.92;98302.44;106169;1255;60555;-56
2023/11/29 01:15:20;;;;;;;2.90;0.70;;;;;;;19.78;40.92;98296.49;105535;1257;60488;-61
2023/11/29 01:17:47;;;;;;;1.50;0.20;;;;;;;19.78;40.85;98287.90;106193;1251;64880;-60
2023/11/29 01:20:16;;;;;;;0.80;0.10;;;;;;;19.68;40.95;98283.56;105465;1257;60781;-60
2023/11/29 01:22:44;;;;;;;1.60;0.50;;;;;;;19.58;40.89;98281.56;105412;1257;62505;-58
2023/11/29 01:25:12;;;;;;;1.30;0.30;;;;;;;19.50;40.97;98278.67;106252;1251;60507;-58
2023/11/29 01:27:40;;;;;;;0.70;0.10;;;;;;;19.54;40.74;98277.79;105625;1255;60472;-56
2023/11/29 01:30:09;;;;;;;1.40;0.20;;;;;;;19.56;40.60;98275.16;106168;1252;65354;-57
2023/11/29 01:32:37;;;;;;;0.50;0.10;;;;;;;19.56;40.49;98271.02;106949;1251;61403;-58
2023/11/29 01:35:05;;;;;;;0.20;0.10;;;;;;;19.53;40.61;98268.16;105519;1256;62567;-57
2023/11/29 01:37:34;;;;;;;0.50;0.10;;;;;;;19.51;40.57;98263.15;105919;1257;60549;-58
2023/11/29 01:40:02;;;;;;;0.80;0.10;;;;;;;19.43;40.65;98260.48;107602;1250;60440;-59
2023/11/29 01:42:30;;;;;;;0.20;0.00;;;;;;;19.38;40.78;98253.23;107000;1250;63656;-60
2023/11/29 01:44:58;;;;;;;0.70;0.20;;;;;;;19.32;40.76;98248.55;106596;1251;61300;-58
2023/11/29 01:47:26;;;;;;;1.80;0.40;;;;;;;19.27;40.80;98245.45;106223;1251;62435;-57
2023/11/29 01:49:53;;;;;;;0.20;0.00;;;;;;;19.26;40.87;98241.80;106214;1251;60534;-58
2023/11/29 01:52:21;;;;;;;0.20;0.00;;;;;;;19.34;40.69;98235.79;106970;1254;60720;-59
2023/11/29 01:54:48;;;;;;;0.40;0.20;;;;;;;19.35;40.48;98228.92;105508;1251;67444;-58
2023/11/29 01:57:17;;;;;;;1.60;0.30;;;;;;;19.36;40.42;98227.36;105680;1256;61491;-60
2023/11/29 01:59:45;;;;;;;0.40;0.10;;;;;;;19.36;40.41;98221.23;105782;1257;62508;-58
2023/11/29 02:02:13;;;;;;;0.50;0.10;;;;;;;19.30;40.48;98215.07;105600;1251;60529;-58
2023/11/29 02:04:41;;;;;;;0.90;0.20;;;;;;;19.28;40.42;98213.70;105706;1256;60678;-58
2023/11/29 02:07:10;;;;;;;1.70;0.40;;;;;;;19.25;40.53;98209.20;106437;1251;65352;-57
2023/11/29 02:09:41;;;;;;;1.80;0.40;;;;;;;19.22;40.57;98207.09;106573;1256;60488;-57
2023/11/29 02:12:09;;;;;;;2.20;0.80;;;;;;;19.16;40.54;98201.73;105595;1253;64252;-59
2023/11/29 02:14:42;;;;;;;0.80;0.10;;;;;;;19.17;40.54;98202.14;105872;1256;59921;-60
2023/11/29 02:17:10;;;;;;;0.80;0.20;;;;;;;19.23;40.34;98191.12;106872;1255;60419;-58
2023/11/29 02:19:38;;;;;;;0.40;0.10;;;;;;;19.25;40.20;98190.34;105440;1251;65190;-58
2023/11/29 02:22:06;;;;;;;1.00;0.20;;;;;;;19.28;40.18;98187.13;105456;1251;61804;-59
2023/11/29 02:24:39;;;;;;;0.70;0.40;;;;;;;19.23;40.26;98184.36;105488;1256;64026;-59
2023/11/29 02:27:09;;;;;;;1.60;0.50;;;;;;;19.19;40.28;98190.20;105722;1251;60469;-58
2023/11/29 02:29:38;;;;;;;1.10;0.20;;;;;;;19.12;40.48;98192.02;107351;1251;60546;-56
2023/11/29 02:32:06;;;;;;;1.10;0.20;;;;;;;19.03;40.54;98183.42;105987;1252;63792;-58
2023/11/29 02:34:37;;;;;;;0.90;0.20;;;;;;;18.96;40.63;98178.16;105530;1257;61547;-60
2023/11/29 02:37:05;;;;;;;3.80;0.40;;;;;;;18.92;40.75;98177.49;105850;1256;62519;-56
2023/11/29 02:39:32;;;;;;;1.00;0.20;;;;;;;18.87;40.67;98174.92;105509;1255;61049;-56
2023/11/29 02:42:00;;;;;;;1.30;0.30;;;;;;;18.81;40.60;98173.85;106080;1257;60486;-56
2023/11/29 02:44:27;;;;;;;1.50;0.40;;;;;;;18.75;40.58;98170.98;105727;1250;65587;-56
2023/11/29 02:46:56;;;;;;;1.50;0.30;;;;;;;18.66;40.57;98164.65;105537;1251;61450;-56
2023/11/29 02:49:24;;;;;;;0.80;0.20;;;;;;;18.63;40.40;98160.52;105963;1253;62537;-57
2023/11/29 02:51:52;;;;;;;0.60;0.10;;;;;;;18.64;40.40;98160.47;105779;1255;60520;-53
2023/11/29 02:54:19;;;;;;;1.30;0.20;;;;;;;18.70;40.41;98158.98;105532;1257;60444;-56
2023/11/29 02:56:47;;;;;;;0.70;0.10;;;;;;;18.75;40.37;98157.87;105872;1251;65109;-57
2023/11/29 02:59:15;;;;;;;0.50;0.10;;;;;;;18.79;40.41;98154.86;106084;1255;61213;-56
2023/11/29 03:01:42;;;;;;;2.20;0.60;;;;;;;18.87;40.44;98152.95;105463;1251;63661;-57
2023/11/29 03:04:10;;;;;;;0.80;0.10;;;;;;;18.90;40.54;98146.05;106266;1251;60702;-56
2023/11/29 03:06:38;;;;;;;1.60;0.70;;;;;;;18.90;40.50;98144.23;105624;1252;60348;-57
2023/11/29 03:09:06;;;;;;;0.80;0.10;;;;;;;18.84;40.59;98144.09;106102;1251;63680;-56
2023/11/29 03:11:34;;;;;;;1.70;0.20;;;;;;;18.82;40.41;98140.89;106052;1257;61504;-56
2023/11/29 03:14:02;;;;;;;2.00;0.50;;;;;;;18.68;40.43;98132.79;105548;1257;62623;-56
2023/11/29 03:16:30;;;;;;;1.20;0.30;;;;;;;18.56;40.56;98132.81;105910;1253;60962;-58
2023/11/29 03:18:58;;;;;;;1.50;0.40;;;;;;;18.48;40.71;98124.46;105458;1256;60450;-58
2023/11/29 03:21:28;;;;;;;2.40;0.20;;;;;;;18.36;40.80;98119.15;105535;1256;64870;-59
2023/11/29 03:23:56;;;;;;;1.50;0.30;;;;;;;18.36;40.74;98115.75;106539;1256;61413;-59
2023/11/29 03:26:23;;;;;;;0.80;0.20;;;;;;;18.46;40.59;98116.17;106102;1251;64262;-59
2023/11/29 03:28:51;;;;;;;0.40;0.00;;;;;;;18.55;40.46;98115.05;105600;1256;60613;-58
2023/11/29 03:31:19;;;;;;;0.60;0.20;;;;;;;18.61;40.41;98112.53;106213;1251;60608;-60
2023/11/29 03:33:46;;;;;;;1.10;0.30;;;;;;;18.68;40.34;98107.38;105545;1256;63628;-59
2023/11/29 03:36:14;;;;;;;1.90;0.50;;;;;;;18.66;40.39;98107.85;105524;1257;62303;-57
2023/11/29 03:38:42;;;;;;;1.50;0.30;;;;;;;18.63;40.56;98109.55;105582;1254;63706;-58
2023/11/29 03:41:10;;;;;;;1.30;0.30;;;;;;;18.64;40.60;98103.75;105430;1251;60589;-59
2023/11/29 03:43:37;;;;;;;2.00;0.50;;;;;;;18.62;40.50;98104.02;106397;1257;60356;-59
2023/11/29 03:46:05;;;;;;;2.10;0.50;;;;;;;18.56;40.56;98100.04;106093;1251;64971;-56
2023/11/29 03:48:33;;;;;;;1.60;0.40;;;;;;;18.46;40.56;98095.66;106259;1252;60546;-58
2023/11/29 03:51:01;;;;;;;1.10;0.30;;;;;;;18.38;40.59;98095.37;105779;1256;64558;-57
2023/11/29 03:53:28;;;;;;;2.00;0.50;;;;;;;18.29;40.54;98090.09;106236;1257;60552;-58
2023/11/29 03:55:56;;;;;;;1.50;0.50;;;;;;;18.24;40.57;98086.94;105623;1257;60399;-57
2023/11/29 03:58:24;;;;;;;1.20;0.40;;;;;;;18.18;40.49;98078.52;105944;1251;63741;-56
2023/11/29 04:00:51;;;;;;;1.00;0.20;;;;;;;18.13;40.42;98077.94;105912;1251;61313;-57
2023/11/29 04:03:19;;;;;;;0.50;0.10;;;;;;;18.17;40.32;98077.14;105547;1251;62469;-59
2023/11/29 04:05:46;;;;;;;0.50;0.10;;;;;;;18.20;40.28;98075.23;105747;1253;61093;-56
2023/11/29 04:08:15;;;;;;;1.00;0.30;;;;;;;18.28;40.29;98070.30;105716;1257;60533;-56
2023/11/29 04:10:42;;;;;;;1.20;0.10;;;;;;;18.44;40.15;98071.06;105727;1253;74672;-57
2023/11/29 04:13:10;;;;;;;1.40;0.30;;;;;;;18.61;40.05;98066.02;106021;1256;61306;-57
2023/11/29 04:15:38;;;;;;;3.90;0.30;;;;;;;18.61;40.11;98061.88;105278;1254;63759;-58
2023/11/29 04:18:05;;;;;;;0.90;0.20;;;;;;;18.56;40.25;98057.92;105863;1257;60447;-58
2023/11/29 04:20:33;;;;;;;1.70;0.20;;;;;;;18.56;40.23;98056.77;108295;1256;59442;-58
2023/11/29 04:23:01;;;;;;;1.30;0.30;;;;;;;18.47;40.24;98052.82;105987;1257;63626;-57
2023/11/29 04:25:29;;;;;;;0.60;0.20;;;;;;;18.36;40.34;98047.65;105803;1254;60454;-57
2023/11/29 04:27:56;;;;;;;1.80;0.30;;;;;;;18.31;40.29;98046.54;105887;1256;62426;-58
2023/11/29 04:30:26;;;;;;;1.30;0.30;;;;;;;18.26;40.25;98048.23;106286;1256;60558;-57
2023/11/29 04:32:54;;;;;;;0.40;0.10;;;;;;;18.23;40.19;98036.59;103839;1257;3593123;-58
2023/11/29 04:47:27;;;;;;;0.40;0.10;;;;;;;17.40;42.59;98022.95;102836;1283;613392;-58
2023/11/29 04:49:54;;;;;;;1.50;0.30;;;;;;;18.66;39.79;98013.55;102227;1266;3432435;-60
2023/11/29 04:52:22;;;;;;;1.10;0.20;;;;;;;18.75;39.49;98011.14;105096;1266;59260;-59
2023/11/29 04:54:50;;;;;;;0.60;0.00;;;;;;;18.87;39.20;98012.10;105237;1267;63343;-59
2023/11/29 04:57:17;;;;;;;1.20;0.00;;;;;;;18.85;39.27;98010.58;105249;1269;61876;-60
2023/11/29 04:59:45;;;;;;;1.00;0.30;;;;;;;18.84;39.13;98003.67;104309;1270;63794;-60
2023/11/29 05:02:13;;;;;;;1.30;0.40;;;;;;;18.75;39.22;98003.64;104324;1266;59203;-58
2023/11/29 05:04:40;;;;;;;2.00;0.40;;;;;;;18.68;39.31;97998.69;104370;1266;59348;-58
2023/11/29 05:07:08;;;;;;;0.90;0.20;;;;;;;18.66;39.37;97996.35;104548;1270;63893;-59
2023/11/29 05:09:35;;;;;;;3.10;0.70;;;;;;;18.62;39.47;97992.05;104833;1269;60238;-60
2023/11/29 05:12:04;;;;;;;1.20;0.40;;;;;;;18.54;39.49;97992.48;104363;1267;63797;-56
2023/11/29 05:14:31;;;;;;;1.20;0.40;;;;;;;18.47;39.40;97988.97;104836;1267;59721;-57
2023/11/29 05:16:59;;;;;;;1.40;0.40;;;;;;;18.42;39.06;97988.57;105621;1268;59634;-58
2023/11/29 05:19:27;;;;;;;1.70;0.40;;;;;;;18.32;38.98;97985.71;104854;1266;62987;-55
2023/11/29 05:21:54;;;;;;;1.20;0.30;;;;;;;18.22;39.02;97982.02;104294;1266;61831;-55
2023/11/29 05:24:22;;;;;;;1.00;0.20;;;;;;;18.26;38.96;97981.72;105918;1266;63752;-55
2023/11/29 05:26:50;;;;;;;1.30;0.30;;;;;;;18.28;38.75;97977.90;104545;1266;59766;-56
2023/11/29 05:29:18;;;;;;;1.50;0.10;;;;;;;18.33;38.67;97977.91;106179;1266;59570;-55
2023/11/29 05:31:46;;;;;;;1.10;0.20;;;;;;;18.47;38.66;97977.09;104366;1267;62846;-55
2023/11/29 05:34:14;;;;;;;1.10;0.20;;;;;;;18.58;38.49;97968.48;104459;1267;61524;-58
2023/11/29 05:36:41;;;;;;;1.80;0.20;;;;;;;18.63;38.45;97965.19;106207;1270;64344;-57
2023/11/29 05:39:10;;;;;;;1.30;0.50;;;;;;;18.65;38.66;97967.73;104316;1266;59676;-57
2023/11/29 05:41:37;;;;;;;0.50;0.20;;;;;;;18.61;38.58;97967.20;104728;1267;59656;-57
2023/11/29 05:44:05;;;;;;;1.90;0.80;;;;;;;18.63;38.43;97966.62;104100;1267;62830;-59
2023/11/29 05:46:33;;;;;;;1.50;0.40;;;;;;;18.68;38.52;97959.86;104430;1266;61411;-58
2023/11/29 05:49:00;;;;;;;1.30;0.30;;;;;;;18.68;38.49;97955.48;104321;1267;62569;-60
2023/11/29 05:51:28;;;;;;;1.50;0.30;;;;;;;18.61;38.49;97953.84;104398;1266;59780;-63
2023/11/29 05:53:57;;;;;;;3.20;0.40;;;;;;;18.62;38.38;97950.70;104432;1267;59650;-61
2023/11/29 05:56:24;;;;;;;1.20;0.30;;;;;;;18.64;38.18;97947.88;105044;1267;64081;-57
2023/11/29 05:58:52;;;;;;;2.10;0.60;;;;;;;18.60;38.28;97951.42;108307;1266;60291;-50
2023/11/29 06:01:20;;;;;;;0.80;0.20;;;;;;;18.58;38.44;97944.67;106781;1266;65756;-48
2023/11/29 06:03:47;;;;;;;1.70;0.50;;;;;;;18.54;38.34;97942.67;104406;1267;59886;-54
2023/11/29 06:06:15;;;;;;;1.60;0.30;;;;;;;18.55;38.37;97949.03;105090;1270;59547;-57
2023/11/29 06:08:43;;;;;;;1.60;0.30;;;;;;;18.59;38.28;97946.45;104861;1267;64094;-51
2023/11/29 06:11:11;;;;;;;1.80;0.60;;;;;;;18.68;38.30;97944.28;104320;1270;60270;-51
2023/11/29 06:13:41;;;;;;;1.60;0.40;;;;;;;18.74;38.39;97946.75;104659;1267;62685;-56
2023/11/29 06:16:08;;;;;;;1.30;0.30;;;;;;;18.81;38.49;97949.15;105400;1270;60194;-56
2023/11/29 06:18:38;;;;;;;1.70;0.40;;;;;;;18.91;38.51;97952.19;104226;1272;59673;-52
2023/11/29 06:21:06;;;;;;;1.80;0.40;;;;;;;19.04;38.30;97954.54;104918;1267;64639;-49
2023/11/29 06:23:39;;;;;;;2.60;1.00;;;;;;;19.05;38.36;97955.13;104366;1267;61689;-50
2023/11/29 06:26:10;;;;;;;1.80;0.50;;;;;;;19.06;38.33;97955.56;107585;1266;62573;-52
2023/11/29 06:28:41;;;;;;;1.20;0.30;;;;;;;19.05;38.14;97954.55;104395;1267;59784;-50
2023/11/29 06:31:10;;;;;;;1.00;0.20;;;;;;;19.01;38.26;97949.84;104481;1267;59835;-50
2023/11/29 06:33:38;;;;;;;2.30;0.50;;;;;;;18.98;38.26;97941.71;104893;1270;64064;-52
2023/11/29 06:36:06;;;;;;;3.70;1.20;;;;;;;18.96;38.17;97939.44;104411;1271;60253;-52
2023/11/29 06:38:34;;;;;;;2.60;0.50;;;;;;;18.91;38.23;97945.90;104698;1267;72693;-50
2023/11/29 06:41:01;;;;;;;2.70;0.60;;;;;;;18.97;38.15;97949.75;104339;1267;59778;-59
2023/11/29 06:43:29;;;;;;;2.00;0.40;;;;;;;19.08;38.09;97949.27;104328;1266;59772;-59
2023/11/29 06:45:57;;;;;;;2.00;0.50;;;;;;;19.05;38.35;97948.56;106013;1266;64118;-60
2023/11/29 06:48:25;;;;;;;2.90;1.00;;;;;;;19.11;38.36;97944.42;108280;1266;61521;-58
2023/11/29 06:50:53;;;;;;;2.00;0.70;;;;;;;19.31;38.24;97945.38;105747;1266;63731;-59
2023/11/29 06:53:21;;;;;;;2.50;0.70;;;;;;;19.47;38.29;97948.39;105237;1266;59713;-61
2023/11/29 06:55:49;;;;;;;3.10;0.90;;;;;;;19.50;38.10;97957.92;105048;1266;59807;-57
2023/11/29 06:58:17;;;;;;;2.00;0.40;;;;;;;19.50;38.18;97962.82;105091;1270;64080;-60
2023/11/29 07:00:51;;;;;;;3.00;0.90;;;;;;;19.55;38.24;97962.95;104831;1267;60147;-60
2023/11/29 07:03:19;;;;;;;4.60;2.10;;;;;;;19.57;38.32;97960.80;105312;1264;64305;-60
2023/11/29 07:05:47;;;;;;;2.90;1.00;;;;;;;19.57;38.33;97951.09;104911;1267;59759;-60
2023/11/29 07:08:15;;;;;;;4.30;0.60;;;;;;;19.58;38.15;97946.54;104699;1263;59852;-60
2023/11/29 07:10:42;;;;;;;3.40;0.80;;;;;;;19.66;37.92;97952.91;107246;1263;62957;-60
2023/11/29 07:13:12;;;;;;;2.50;0.50;;;;;;;19.77;38.07;97962.19;104507;1263;61341;-60
2023/11/29 07:15:39;;;;;;;3.70;0.90;;;;;;;19.87;38.03;97966.04;104629;1265;62542;-59
2023/11/29 07:18:07;;;;;;;3.10;0.90;;;;;;;19.95;38.04;97959.65;104986;1263;59655;-61
2023/11/29 07:20:36;;;;;;;3.10;0.90;;;;;;;19.98;38.04;97957.08;105329;1264;59644;-61
2023/11/29 07:23:13;;;;;;;5.10;2.40;;;;;;;19.95;38.09;97963.02;104826;1262;62893;-60
2023/11/29 07:25:40;;;;;;;2.60;0.70;;;;;;;19.92;38.18;97962.34;104707;1263;61908;-58
2023/11/29 07:28:08;;;;;;;3.80;1.00;;;;;;;19.88;38.27;97960.19;105505;1263;63809;-61
2023/11/29 07:30:35;;;;;;;6.50;3.70;;;;;;;19.92;38.23;97959.60;107525;1264;59652;-62
2023/11/29 07:33:03;;;;;;;2.30;0.80;;;;;;;19.95;38.17;97962.33;104656;1266;59573;-59
2023/11/29 07:35:31;;;;;;;3.90;1.30;;;;;;;19.96;38.16;97960.84;104702;1264;64347;-61
2023/11/29 07:37:59;;;;;;;3.40;0.90;;;;;;;20.05;38.05;97962.21;105120;1267;60410;-58
2023/11/29 07:40:28;;;;;;;3.50;1.20;;;;;;;20.11;38.11;97969.67;105717;1263;62708;-57
2023/11/29 07:42:55;;;;;;;4.00;1.30;;;;;;;20.16;38.25;97977.06;104993;1263;59718;-59
2023/11/29 07:45:23;;;;;;;9.00;4.70;;;;;;;20.18;38.25;97981.53;106193;1263;59874;-59
2023/11/29 07:47:52;;;;;;;4.50;1.30;;;;;;;20.17;38.29;97981.68;105686;1267;64784;-61
2023/11/29 07:50:20;;;;;;;4.70;1.90;;;;;;;20.16;38.15;97974.48;106550;1263;61515;-60
2023/11/29 07:52:48;;;;;;;8.10;5.00;;;;;;;20.12;38.14;97975.77;105959;1257;63673;-59
2023/11/29 07:55:15;;;;;;;5.50;2.40;;;;;;;20.11;38.03;97977.19;107472;1256;59855;-63
2023/11/29 07:57:45;;;;;;;6.00;2.50;;;;;;;20.09;37.65;97971.39;108889;1254;58633;-58
2023/11/29 08:00:13;;;;;;;8.20;3.00;;;;;;;20.02;37.63;97968.83;105294;1257;66441;-59
2023/11/29 08:02:43;;;;;;;4.80;1.70;;;;;;;20.00;37.45;97969.50;108121;1254;60300;-59
2023/11/29 08:05:10;;;;;;;6.30;2.00;;;;;;;20.01;37.36;97978.43;107086;1254;62776;-60
2023/11/29 08:07:38;;;;;;;6.30;2.00;;;;;;;19.97;37.37;97985.19;106939;1255;59653;-61
2023/11/29 08:10:07;;;;;;;5.00;2.10;;;;;;;19.83;37.40;97987.73;105401;1254;59813;-60
2023/11/29 08:12:36;;;;;;;7.50;3.00;;;;;;;19.67;37.73;97982.60;107866;1254;62913;-59
2023/11/29 08:15:04;;;;;;;5.80;1.50;;;;;;;19.63;37.79;97981.88;107941;1257;61348;-57
2023/11/29 08:17:32;;;;;;;4.30;1.70;;;;;;;19.56;37.74;97988.96;105897;1258;62603;-56
2023/11/29 08:20:00;;;;;;;5.30;3.10;;;;;;;19.47;37.62;97991.30;106448;1255;62027;-57
2023/11/29 08:22:28;;;;;;;4.80;1.40;;;;;;;19.37;37.56;97993.68;105043;1256;59768;-60
2023/11/29 08:24:56;;;;;;;3.60;1.20;;;;;;;19.33;37.61;97995.96;109165;1259;64052;-60
2023/11/29 08:27:24;;;;;;;5.00;2.80;;;;;;;19.29;37.46;98002.35;109056;1254;61553;-62
2023/11/29 08:29:52;;;;;;;3.10;0.60;;;;;;;19.28;37.59;98006.73;109044;1257;62573;-61
2023/11/29 08:32:19;;;;;;;5.20;3.00;;;;;;;19.25;37.38;98009.08;109022;1256;57965;-62
2023/11/29 08:34:47;;;;;;;3.90;1.30;;;;;;;19.20;37.13;98010.96;109016;1257;57369;-60
2023/11/29 08:37:16;;;;;;;4.60;1.50;;;;;;;19.16;37.15;98012.59;109097;1254;62876;-58
2023/11/29 08:39:44;;;;;;;6.10;3.20;;;;;;;19.07;37.38;98014.17;105784;1254;61425;-57
2023/11/29 08:42:11;;;;;;;3.60;1.20;;;;;;;19.01;37.66;98022.42;105207;1254;63151;-60
2023/11/29 08:44:39;;;;;;;3.20;1.30;;;;;;;19.07;37.69;98029.79;105736;1257;59772;-65
2023/11/29 08:47:07;;;;;;;3.50;1.20;;;;;;;19.03;37.11;98025.97;105706;1256;59282;-62
2023/11/29 08:49:35;;;;;;;3.30;1.10;;;;;;;18.96;36.92;98026.36;105750;1254;64058;-58
2023/11/29 08:52:03;;;;;;;2.80;0.80;;;;;;;18.93;36.80;98031.31;106721;1256;61420;-61
2023/11/29 08:54:32;;;;;;;5.30;1.50;;;;;;;18.79;36.53;98041.70;105752;1257;71403;-61
2023/11/29 08:56:59;;;;;;;5.60;3.00;;;;;;;18.62;36.67;98042.56;105202;1259;60459;-60
2023/11/29 08:59:28;;;;;;;3.60;1.60;;;;;;;18.49;36.84;98041.05;105063;1262;62683;-61
2023/11/29 09:01:56;;;;;;;4.10;1.80;;;;;;;18.33;36.79;98048.02;106853;1259;67053;-60
2023/11/29 09:04:24;;;;;;;4.70;1.40;;;;;;;18.22;36.84;98053.29;106593;1254;60510;-62
2023/11/29 09:06:51;;;;;;;6.90;3.90;;;;;;;18.23;36.95;98058.06;105779;1257;66260;-60
2023/11/29 09:09:19;;;;;;;4.30;1.90;;;;;;;18.23;36.60;98064.16;105755;1259;61622;-61
2023/11/29 09:11:47;;;;;;;4.00;1.70;;;;;;;18.21;36.50;98069.30;105288;1255;61099;-65
2023/11/29 09:14:15;;;;;;;4.60;1.60;;;;;;;18.18;36.63;98067.47;105568;1254;64925;-63
2023/11/29 09:16:42;;;;;;;5.10;2.30;;;;;;;18.14;36.94;98071.14;105232;1257;61366;-61
2023/11/29 09:19:10;;;;;;;7.30;4.40;;;;;;;18.08;36.94;98070.57;105627;1254;63711;-61
2023/11/29 09:21:38;;;;;;;7.20;2.70;;;;;;;18.03;36.80;98075.23;106024;1257;60583;-65
2023/11/29 09:24:06;;;;;;;5.10;2.00;;;;;;;17.96;36.99;98082.50;106235;1254;60326;-62
2023/11/29 09:26:34;;;;;;;5.40;1.40;;;;;;;17.82;37.01;98089.23;105213;1255;65153;-64
2023/11/29 09:29:02;;;;;;;4.90;2.00;;;;;;;17.63;36.48;98096.09;105669;1254;61428;-61
2023/11/29 09:31:29;;;;;;;6.80;1.80;;;;;;;17.55;36.33;98087.89;105303;1257;64743;-60
2023/11/29 09:33:57;;;;;;;6.20;1.90;;;;;;;17.50;36.52;98085.38;106446;1259;60789;-62
2023/11/29 09:36:25;;;;;;;5.50;2.70;;;;;;;17.44;36.77;98080.94;105691;1256;60758;-63
2023/11/29 09:38:52;;;;;;;5.70;2.40;;;;;;;17.40;36.76;98083.28;105072;1259;67499;-61
2023/11/29 09:41:20;;;;;;;7.40;2.90;;;;;;;17.31;37.05;98093.86;105171;1259;61965;-61
2023/11/29 09:43:48;;;;;;;5.50;2.40;;;;;;;17.17;36.79;98100.85;107123;1255;64852;-60
2023/11/29 09:46:17;;;;;;;6.60;2.30;;;;;;;16.99;36.95;98101.98;105503;1254;60388;-66
2023/11/29 09:48:45;;;;;;;8.00;2.70;;;;;;;16.89;37.15;98121.86;105053;1259;60618;-63
2023/11/29 09:51:12;;;;;;;6.80;2.70;;;;;;;16.88;37.17;98126.55;105440;1254;65310;-63
2023/11/29 09:53:40;;;;;;;6.80;3.00;;;;;;;17.00;37.26;98131.92;106082;1257;61848;-64
2023/11/29 09:56:09;;;;;;;6.40;2.50;;;;;;;17.03;37.07;98139.83;105902;1254;64326;-59
2023/11/29 09:58:37;;;;;;;5.00;2.50;;;;;;;17.04;37.05;98141.86;109101;1259;59771;-60
2023/11/29 10:01:05;;;;;;;5.00;2.00;;;;;;;16.99;36.84;98146.81;108989;1255;58512;-60
2023/11/29 10:03:34;;;;;;;7.70;2.90;;;;;;;16.93;36.50;98142.17;109139;1254;64903;-61
2023/11/29 10:06:02;;;;;;;7.10;3.30;;;;;;;16.82;36.39;98143.80;109058;1254;61448;-63
2023/11/29 10:08:30;;;;;;;7.10;2.50;;;;;;;16.71;36.40;98154.38;108943;1257;62552;-66
2023/11/29 10:11:00;;;;;;;7.60;3.10;;;;;;;16.64;36.49;98151.52;109017;1257;58277;-61
2023/11/29 10:13:30;;;;;;;5.60;2.50;;;;;;;16.65;36.83;98157.73;109164;1257;58620;-61
2023/11/29 10:15:58;;;;;;;5.70;2.00;;;;;;;16.68;36.63;98167.27;109061;1255;63717;-64
2023/11/29 10:18:25;;;;;;;6.50;2.10;;;;;;;16.69;36.54;98174.48;106651;1257;61868;-59
2023/11/29 10:20:53;;;;;;;6.70;2.60;;;;;;;16.63;35.98;98184.02;105913;1260;63656;-61
2023/11/29 10:23:39;;;;;;;10.20;4.50;;;;;;;16.50;35.63;98186.73;105506;1255;60527;-64
2023/11/29 10:26:08;;;;;;;9.40;4.50;;;;;;;16.34;35.59;98191.44;106208;1258;60354;-63
2023/11/29 10:28:35;;;;;;;6.40;2.40;;;;;;;16.26;35.86;98190.39;106584;1254;63664;-62
2023/11/29 10:31:07;;;;;;;8.10;3.30;;;;;;;16.26;36.33;98186.61;105394;1254;72623;-62
2023/11/29 10:33:35;;;;;;;8.00;2.80;;;;;;;16.24;36.44;98192.27;106149;1257;62528;-60
2023/11/29 10:36:03;;;;;;;5.90;2.70;;;;;;;16.18;36.43;98194.88;105198;1260;60543;-60
2023/11/29 10:38:37;;;;;;;5.60;2.70;;;;;;;16.11;36.18;98207.48;105644;1260;60989;-62
2023/11/29 10:41:05;;;;;;;9.00;3.20;;;;;;;16.06;35.73;98217.88;106175;1259;64974;-61
2023/11/29 10:43:34;;;;;;;8.90;2.60;;;;;;;16.01;35.43;98225.54;106464;1254;61654;-61
2023/11/29 10:46:12;;;;;;;8.10;3.60;;;;;;;15.92;35.47;98234.46;105627;1258;74885;-63
2023/11/29 10:48:43;;;;;;;7.80;4.00;;;;;;;15.90;35.76;98226.65;106209;1259;60456;-62
2023/11/29 10:51:11;;;;;;;8.60;3.20;;;;;;;15.77;35.68;98233.21;105513;1254;60581;-62
2023/11/29 10:53:40;;;;;;;7.50;3.10;;;;;;;15.69;35.84;98235.01;105151;1258;63802;-62
2023/11/29 10:56:08;;;;;;;8.20;3.90;;;;;;;15.59;35.79;98244.13;105386;1254;72434;-63
2023/11/29 10:58:44;;;;;;;8.40;4.00;;;;;;;15.55;36.01;98237.58;105417;1259;73749;-61
2023/11/29 11:01:12;;;;;;;7.20;3.50;;;;;;;15.57;36.07;98247.31;105246;1260;60448;-64
2023/11/29 11:03:42;;;;;;;8.50;4.00;;;;;;;15.60;35.95;98246.61;106276;1257;60427;-64
2023/11/29 11:06:23;;;;;;;8.50;3.80;;;;;;;15.70;36.04;98248.59;105577;1259;65309;-66
2023/11/29 11:08:51;;;;;;;8.20;4.40;;;;;;;15.60;35.60;98254.84;109032;1254;60455;-52
2023/11/29 11:11:42;;;;;;;10.90;4.30;;;;;;;15.58;35.51;98263.30;109136;1254;63861;-53
2023/11/29 11:14:23;;;;;;;6.90;3.30;;;;;;;15.60;35.68;98268.92;109026;1253;59147;-53
2023/11/29 11:16:55;;;;;;;9.30;3.40;;;;;;;15.50;35.35;98290.76;109023;1254;58300;-54
2023/11/29 11:19:30;;;;;;;8.10;3.60;;;;;;;15.49;35.67;98283.09;106692;1254;63820;-55
2023/11/29 11:21:59;;;;;;;6.60;2.90;;;;;;;15.46;35.66;98302.88;106624;1254;61558;-59
2023/11/29 11:25:05;;;;;;;6.20;2.70;;;;;;;15.45;35.26;98309.11;106488;1259;63701;-55
2023/11/29 11:27:36;;;;;;;6.40;3.30;;;;;;;15.47;35.24;98312.73;105055;1255;60590;-54
2023/11/29 11:30:14;;;;;;;7.10;3.20;;;;;;;15.49;35.02;98309.06;105410;1257;60559;-54
2023/11/29 11:32:53;;;;;;;7.40;3.00;;;;;;;15.47;35.04;98321.41;105514;1260;67764;-59
2023/11/29 11:35:24;;;;;;;7.00;2.60;;;;;;;15.41;35.10;98312.52;105144;1259;61373;-60
2023/11/29 11:37:59;;;;;;;10.70;4.10;;;;;;;15.44;35.54;98313.79;105697;1260;62520;-60
2023/11/29 11:40:29;;;;;;;9.50;4.20;;;;;;;15.45;35.73;98312.04;105877;1260;60676;-64
2023/11/29 11:42:57;;;;;;;8.30;3.90;;;;;;;15.38;35.86;98307.23;106092;1259;60509;-63